KPTT

Pratt Regional Airport

Pratt, Kansas, USA
METAR KPTT 170355Z AUTO 33004KT 10SM CLR 07/04 A3032 RMK AO2 T00740039
Observed Flight Rules
Oct-17 @ 03:55 UTC (an hour ago) Visual Flight Rules
Wind Visibility Clouds
330° at 4 knots 10 miles
  • Clear skies
Temperatures Readings
Current 7°C / 45°F
Dewpoint 4°C / 39°F
Humidity 81%
Altimeter 30.32" Hg
Pressure 1027 hPa
Elevation 595
METAR KPTT 170355Z AUTO 33004KT 10SM CLR 07/04 A3032 RMK AO2 T00740039
Observed Flight Rules
Oct-17 @ 03:55 UTC
(an hour ago)
VFR
Wind Visibility
330° at 4 knots 10 miles
Clouds
  • Clear skies
Temperature Dewpoint
7°C / 45°F 4°C / 39°F
Humidity Altimeter Pressure
81% 30.32" Hg 1027 hPa